createdAt,value
2016-08-01T00:00:25.395Z,1016.21
2016-08-01T00:01:25.420Z,1016.16
2016-08-01T00:02:25.444Z,1016.16
2016-08-01T00:04:25.494Z,1016.17
2016-08-01T00:05:25.518Z,1016.17
2016-08-01T00:06:25.544Z,1016.18
2016-08-01T00:07:25.568Z,1016.18
2016-08-01T00:08:25.593Z,1016.15
2016-08-01T00:09:25.619Z,1016.21
2016-08-01T00:10:25.643Z,1016.19
2016-08-01T00:11:25.667Z,1016.18
2016-08-01T00:12:25.693Z,1016.17
2016-08-01T00:13:25.718Z,1016.2
2016-08-01T00:14:25.743Z,1016.22
2016-08-01T00:15:25.767Z,1016.2
2016-08-01T00:16:25.792Z,1016.21
2016-08-01T00:17:25.817Z,1016.2
2016-08-01T00:19:25.866Z,1016.22
2016-08-01T00:20:25.899Z,1016.19
2016-08-01T00:21:25.917Z,1016.14
2016-08-01T00:22:25.940Z,1016.16
2016-08-01T00:23:25.966Z,1016.17
2016-08-01T00:24:25.992Z,1016.14
2016-08-01T00:25:26.015Z,1016.18
2016-08-01T00:26:26.040Z,1016.18
2016-08-01T00:27:26.065Z,1016.17
2016-08-01T00:28:26.089Z,1016.19
2016-08-01T00:29:26.114Z,1016.16
2016-08-01T00:30:26.139Z,1016.18
2016-08-01T00:31:26.164Z,1016.17
2016-08-01T00:32:26.190Z,1016.18
2016-08-01T00:34:26.238Z,1016.28
2016-08-01T00:35:26.264Z,1016.25
2016-08-01T00:36:26.288Z,1016.25
2016-08-01T00:37:26.312Z,1016.28
2016-08-01T00:38:26.337Z,1016.28
2016-08-01T00:39:26.363Z,1016.34
2016-08-01T00:40:26.386Z,1016.32
2016-08-01T00:41:26.412Z,1016.37
2016-08-01T00:42:26.437Z,1016.33
2016-08-01T00:43:26.461Z,1016.35
2016-08-01T00:44:26.486Z,1016.35
2016-08-01T00:45:26.511Z,1016.34
2016-08-01T00:46:26.536Z,1016.35
2016-08-01T00:47:26.561Z,1016.32
2016-08-01T00:49:26.609Z,1016.34
2016-08-01T00:50:26.635Z,1016.36
2016-08-01T00:51:26.659Z,1016.4
2016-08-01T00:52:26.683Z,1016.37
2016-08-01T00:53:26.709Z,1016.39
2016-08-01T00:54:26.740Z,1016.41
2016-08-01T00:55:26.757Z,1016.43
2016-08-01T00:56:26.782Z,1016.39
2016-08-01T00:57:26.807Z,1016.44
2016-08-01T00:58:26.833Z,1016.45
2016-08-01T00:59:26.857Z,1016.46
2016-08-01T01:00:26.881Z,1016.45
2016-08-01T01:01:26.907Z,1016.43
2016-08-01T01:02:26.931Z,1016.46
2016-08-01T01:03:26.956Z,1016.43
2016-08-01T01:04:26.981Z,1016.47
2016-08-01T01:05:27.006Z,1016.44
2016-08-01T01:06:27.029Z,1016.41
2016-08-01T01:07:27.054Z,1016.47
2016-08-01T01:08:27.079Z,1016.48
2016-08-01T01:09:27.104Z,1016.48
2016-08-01T01:10:27.136Z,1016.46
2016-08-01T01:11:27.153Z,1016.51
2016-08-01T01:12:27.184Z,1016.46
2016-08-01T01:13:27.201Z,1016.49
2016-08-01T01:14:27.236Z,1016.49
2016-08-01T01:15:27.251Z,1016.46
2016-08-01T01:16:27.276Z,1016.45
2016-08-01T01:17:27.300Z,1016.45
2016-08-01T01:18:27.326Z,1016.45
2016-08-01T01:19:27.350Z,1016.44
2016-08-01T01:20:27.375Z,1016.46
2016-08-01T01:21:27.400Z,1016.5
2016-08-01T01:22:27.426Z,1016.46
2016-08-01T01:23:27.449Z,1016.45
2016-08-01T01:24:27.483Z,1016.45
2016-08-01T01:25:27.499Z,1016.48
2016-08-01T01:26:27.524Z,1016.47
2016-08-01T01:27:27.549Z,1016.51
2016-08-01T01:28:27.573Z,1016.47
2016-08-01T01:29:27.598Z,1016.49
2016-08-01T01:30:27.622Z,1016.49
2016-08-01T01:31:27.646Z,1016.49
2016-08-01T01:32:27.680Z,1016.45
2016-08-01T01:33:27.697Z,1016.47
2016-08-01T01:34:27.721Z,1016.49
2016-08-01T01:35:27.745Z,1016.48
2016-08-01T01:36:27.770Z,1016.51
2016-08-01T01:37:27.795Z,1016.47
2016-08-01T01:38:27.820Z,1016.49
2016-08-01T01:39:27.844Z,1016.43
2016-08-01T01:40:27.868Z,1016.45
2016-08-01T01:41:27.893Z,1016.43
2016-08-01T01:42:27.918Z,1016.42
2016-08-01T01:43:27.942Z,1016.4
2016-08-01T01:44:27.971Z,1016.37
2016-08-01T01:45:27.992Z,1016.36
2016-08-01T01:46:28.017Z,1016.42
2016-08-01T01:47:28.040Z,1016.41
2016-08-01T01:48:28.066Z,1016.38
2016-08-01T01:49:28.090Z,1016.35
2016-08-01T01:50:28.115Z,1016.4
2016-08-01T01:51:28.139Z,1016.33
2016-08-01T01:52:28.163Z,1016.32
2016-08-01T01:53:28.187Z,1016.35
2016-08-01T01:54:28.213Z,1016.29
2016-08-01T01:55:28.238Z,1016.28
2016-08-01T01:56:28.262Z,1016.26
2016-08-01T01:57:28.286Z,1016.26
2016-08-01T01:58:28.311Z,1016.29
2016-08-01T01:59:28.335Z,1016.26
2016-08-01T02:00:28.361Z,1016.29
2016-08-01T02:01:28.385Z,1016.27
2016-08-01T02:02:28.409Z,1016.24
2016-08-01T02:03:28.449Z,1016.29
2016-08-01T02:04:28.457Z,1016.25
2016-08-01T02:05:28.482Z,1016.25
2016-08-01T02:06:28.507Z,1016.25
2016-08-01T02:07:28.533Z,1016.28
2016-08-01T02:08:28.555Z,1016.27
2016-08-01T02:09:28.581Z,1016.24
2016-08-01T02:10:28.606Z,1016.24
2016-08-01T02:11:28.629Z,1016.25
2016-08-01T02:12:28.655Z,1016.25
2016-08-01T02:13:28.679Z,1016.19
2016-08-01T02:14:28.704Z,1016.18
2016-08-01T02:15:28.728Z,1016.12
2016-08-01T02:16:28.753Z,1016.21
2016-08-01T02:17:28.776Z,1016.21
2016-08-01T02:18:28.802Z,1016.21
2016-08-01T02:19:28.830Z,1016.17
2016-08-01T02:20:28.850Z,1016.14
2016-08-01T02:21:28.875Z,1016.15
2016-08-01T02:22:28.901Z,1016.14
2016-08-01T02:23:28.923Z,1016.11
2016-08-01T02:24:28.949Z,1016.07
2016-08-01T02:25:28.973Z,1016.12
2016-08-01T02:26:28.998Z,1016.1
2016-08-01T02:27:29.022Z,1016.03
2016-08-01T02:28:29.047Z,1016.02
2016-08-01T02:29:29.071Z,1016.03
2016-08-01T02:30:29.096Z,1016.02
2016-08-01T02:31:29.121Z,1016.03
2016-08-01T02:32:29.146Z,1016.01
2016-08-01T02:33:29.170Z,1016
2016-08-01T02:34:29.195Z,1016.03
2016-08-01T02:35:29.219Z,1016.04
2016-08-01T02:36:29.243Z,1016.05
2016-08-01T02:37:29.267Z,1016.08
2016-08-01T02:38:29.291Z,1016.04
2016-08-01T02:39:29.317Z,1016.05
2016-08-01T02:40:29.348Z,1016.07
2016-08-01T02:41:29.367Z,1016.08
2016-08-01T02:42:29.390Z,1016.07
2016-08-01T02:43:29.416Z,1016.13
2016-08-01T02:44:29.440Z,1016.09
2016-08-01T02:45:29.464Z,1016.14
2016-08-01T02:46:29.489Z,1016.17
2016-08-01T02:47:29.514Z,1016.14
2016-08-01T02:48:29.538Z,1016.17
2016-08-01T02:49:29.562Z,1016.15
2016-08-01T02:50:29.588Z,1016.13
2016-08-01T02:51:29.612Z,1016.15
2016-08-01T02:52:29.636Z,1016.12
2016-08-01T02:53:29.661Z,1016.12
2016-08-01T02:54:29.686Z,1016.13
2016-08-01T02:55:29.710Z,1016.14
2016-08-01T02:56:29.735Z,1016.09
2016-08-01T02:57:29.760Z,1016.12
2016-08-01T02:58:29.785Z,1016.16
2016-08-01T02:59:29.808Z,1016.14
2016-08-01T03:00:29.833Z,1016.11
2016-08-01T03:01:29.859Z,1016.14
2016-08-01T03:02:29.883Z,1016.13
2016-08-01T03:03:29.906Z,1016.13
2016-08-01T03:04:29.935Z,1016.12
2016-08-01T03:05:29.959Z,1016.11
2016-08-01T03:06:29.982Z,1016.14
2016-08-01T03:07:30.005Z,1016.14
2016-08-01T03:08:30.030Z,1016.15
2016-08-01T03:09:30.054Z,1016.16
2016-08-01T03:10:30.079Z,1016.18
2016-08-01T03:11:30.104Z,1016.16
2016-08-01T03:12:30.129Z,1016.14
2016-08-01T03:13:30.153Z,1016.14
2016-08-01T03:14:30.177Z,1016.15
2016-08-01T03:15:30.202Z,1016.11
2016-08-01T03:16:30.226Z,1016.12
2016-08-01T03:17:30.250Z,1016.11
2016-08-01T03:18:30.275Z,1016.09
2016-08-01T03:19:30.300Z,1016.09
2016-08-01T03:20:30.325Z,1016.1
2016-08-01T03:21:30.348Z,1016.14
2016-08-01T03:22:30.373Z,1016.12
2016-08-01T03:23:30.398Z,1016.11
2016-08-01T03:24:30.422Z,1016.11
2016-08-01T03:25:30.447Z,1016.11
2016-08-01T03:26:30.472Z,1016.07
2016-08-01T03:27:30.496Z,1016.09
2016-08-01T03:28:30.520Z,1016.09
2016-08-01T03:29:30.545Z,1016.05
2016-08-01T03:30:30.569Z,1016.07
2016-08-01T03:31:30.594Z,1016.06
2016-08-01T03:32:30.619Z,1016.03
2016-08-01T03:33:30.648Z,1016.05
2016-08-01T03:34:30.667Z,1016.02
2016-08-01T03:35:30.692Z,1016.09
2016-08-01T03:36:30.716Z,1016.08
2016-08-01T03:37:30.741Z,1016.08
2016-08-01T03:38:30.767Z,1016.11
2016-08-01T03:39:30.800Z,1016.08
2016-08-01T03:40:30.814Z,1016.08
2016-08-01T03:41:30.839Z,1016.05
2016-08-01T03:42:30.864Z,1016.03
2016-08-01T03:43:30.887Z,1016.06
2016-08-01T03:44:30.913Z,1016.04
2016-08-01T03:45:30.938Z,1016.06
2016-08-01T03:46:30.962Z,1016.07
2016-08-01T03:47:30.987Z,1016.07
2016-08-01T03:48:31.011Z,1016.07
2016-08-01T03:49:31.036Z,1016.06
2016-08-01T03:50:31.060Z,1016.04
2016-08-01T03:51:31.085Z,1016.09
2016-08-01T03:52:31.109Z,1016.09
2016-08-01T03:53:31.134Z,1016.05
2016-08-01T03:54:31.159Z,1016.09
2016-08-01T03:55:31.183Z,1016.05
2016-08-01T03:56:31.208Z,1016.08
2016-08-01T03:57:31.233Z,1016.08
2016-08-01T03:58:31.257Z,1016.1
2016-08-01T03:59:31.282Z,1016.11
2016-08-01T04:00:31.306Z,1016.12
2016-08-01T04:01:31.330Z,1016.17
2016-08-01T04:02:31.355Z,1016.16
2016-08-01T04:03:31.380Z,1016.2
2016-08-01T04:04:31.405Z,1016.21
2016-08-01T04:05:31.429Z,1016.17
2016-08-01T04:06:31.453Z,1016.22
2016-08-01T04:07:31.478Z,1016.23
2016-08-01T04:08:31.502Z,1016.24
2016-08-01T04:09:31.526Z,1016.24
2016-08-01T04:10:31.552Z,1016.3
2016-08-01T04:11:31.576Z,1016.25
2016-08-01T04:12:31.599Z,1016.27
2016-08-01T04:13:31.625Z,1016.28
2016-08-01T04:14:31.650Z,1016.3
2016-08-01T04:15:31.674Z,1016.3
2016-08-01T04:16:31.698Z,1016.29
2016-08-01T04:17:31.723Z,1016.27
2016-08-01T04:18:31.747Z,1016.28
2016-08-01T04:19:31.771Z,1016.26
2016-08-01T04:20:31.796Z,1016.28
2016-08-01T04:21:31.820Z,1016.27
2016-08-01T04:22:31.845Z,1016.26
2016-08-01T04:23:31.870Z,1016.29
2016-08-01T04:24:31.894Z,1016.21
2016-08-01T04:25:31.919Z,1016.22
2016-08-01T04:26:31.944Z,1016.24
2016-08-01T04:27:31.968Z,1016.24
2016-08-01T04:28:32.006Z,1016.23
2016-08-01T04:29:32.017Z,1016.24
2016-08-01T04:30:32.042Z,1016.21
2016-08-01T04:31:32.067Z,1016.23
2016-08-01T04:32:32.094Z,1016.23
2016-08-01T04:33:32.115Z,1016.23
2016-08-01T04:34:32.139Z,1016.26
2016-08-01T04:35:32.164Z,1016.25
2016-08-01T04:36:32.195Z,1016.26
2016-08-01T04:37:32.214Z,1016.25
2016-08-01T04:38:32.246Z,1016.21
2016-08-01T04:39:32.264Z,1016.23
2016-08-01T04:40:32.287Z,1016.27
2016-08-01T04:41:32.312Z,1016.27
2016-08-01T04:42:32.335Z,1016.26
2016-08-01T04:43:32.361Z,1016.25
2016-08-01T04:44:32.392Z,1016.27
2016-08-01T04:45:32.410Z,1016.3
2016-08-01T04:46:32.443Z,1016.28
2016-08-01T04:47:32.459Z,1016.3
2016-08-01T04:48:32.492Z,1016.31
2016-08-01T04:50:32.534Z,1016.36
2016-08-01T04:51:32.559Z,1016.36
2016-08-01T04:52:32.582Z,1016.39
2016-08-01T04:53:32.608Z,1016.33
2016-08-01T04:54:32.632Z,1016.35
2016-08-01T04:55:32.657Z,1016.35
2016-08-01T04:56:32.681Z,1016.34
2016-08-01T04:57:32.705Z,1016.41
2016-08-01T04:58:32.730Z,1016.34
2016-08-01T04:59:32.755Z,1016.39
2016-08-01T05:00:32.779Z,1016.36
2016-08-01T05:01:32.804Z,1016.36
2016-08-01T05:02:32.829Z,1016.38
2016-08-01T05:03:32.852Z,1016.31
2016-08-01T05:04:32.879Z,1016.32
2016-08-01T05:05:32.903Z,1016.32
2016-08-01T05:06:32.937Z,1016.31
2016-08-01T05:07:32.951Z,1016.34
2016-08-01T05:08:32.976Z,1016.33
2016-08-01T05:09:33.001Z,1016.36
2016-08-01T05:10:33.026Z,1016.38
2016-08-01T05:11:33.049Z,1016.36
2016-08-01T05:12:33.075Z,1016.39
2016-08-01T05:13:33.100Z,1016.39
2016-08-01T05:14:33.123Z,1016.37
2016-08-01T05:15:33.149Z,1016.35
2016-08-01T05:16:33.173Z,1016.36
2016-08-01T05:17:33.198Z,1016.41
2016-08-01T05:18:33.222Z,1016.36
2016-08-01T05:19:33.247Z,1016.4
2016-08-01T05:20:33.274Z,1016.43
2016-08-01T05:21:33.300Z,1016.41
2016-08-01T05:22:33.321Z,1016.46
2016-08-01T05:23:33.345Z,1016.42
2016-08-01T05:24:33.370Z,1016.43
2016-08-01T05:25:33.394Z,1016.39
2016-08-01T05:26:33.419Z,1016.35
2016-08-01T05:27:33.444Z,1016.31
2016-08-01T05:28:33.469Z,1016.32
2016-08-01T05:29:33.493Z,1016.28
2016-08-01T05:30:33.518Z,1016.26
2016-08-01T05:31:33.543Z,1016.23
2016-08-01T05:32:33.568Z,1016.22
2016-08-01T05:33:33.592Z,1016.21
2016-08-01T05:34:33.617Z,1016.27
2016-08-01T05:35:33.642Z,1016.26
2016-08-01T05:36:33.666Z,1016.25
2016-08-01T05:37:33.690Z,1016.22
2016-08-01T05:38:33.716Z,1016.26
2016-08-01T05:39:33.740Z,1016.28
2016-08-01T05:40:33.764Z,1016.29
2016-08-01T05:41:33.790Z,1016.34
2016-08-01T05:42:33.815Z,1016.33
2016-08-01T05:43:33.839Z,1016.31
2016-08-01T05:44:33.864Z,1016.36
2016-08-01T05:45:33.888Z,1016.32
2016-08-01T05:46:33.913Z,1016.34
2016-08-01T05:47:33.937Z,1016.36
2016-08-01T05:48:33.963Z,1016.37
2016-08-01T05:49:33.988Z,1016.36
2016-08-01T05:50:34.013Z,1016.37
2016-08-01T05:51:34.037Z,1016.38
2016-08-01T05:52:34.062Z,1016.39
2016-08-01T05:53:34.086Z,1016.36
2016-08-01T05:54:34.112Z,1016.37
2016-08-01T05:55:34.135Z,1016.39
2016-08-01T05:56:34.161Z,1016.35
2016-08-01T05:57:34.187Z,1016.35
2016-08-01T05:58:34.210Z,1016.35
2016-08-01T05:59:34.237Z,1016.4
2016-08-01T06:00:34.263Z,1016.39
2016-08-01T06:01:34.288Z,1016.41
2016-08-01T06:02:34.314Z,1016.44
2016-08-01T06:03:34.339Z,1016.43
2016-08-01T06:04:34.365Z,1016.4
2016-08-01T06:05:34.392Z,1016.37
2016-08-01T06:06:34.418Z,1016.38
2016-08-01T06:07:34.443Z,1016.39
2016-08-01T06:08:34.470Z,1016.4
2016-08-01T06:09:34.495Z,1016.38
2016-08-01T06:10:34.521Z,1016.37
2016-08-01T06:11:34.549Z,1016.37
2016-08-01T06:12:34.574Z,1016.34
2016-08-01T06:13:34.599Z,1016.37
2016-08-01T06:14:34.626Z,1016.34
2016-08-01T06:15:34.653Z,1016.33
2016-08-01T06:16:34.678Z,1016.34
2016-08-01T06:17:34.705Z,1016.33
2016-08-01T06:18:34.732Z,1016.35
2016-08-01T06:20:34.785Z,1016.37
2016-08-01T06:21:34.813Z,1016.36
2016-08-01T06:22:34.838Z,1016.37
2016-08-01T06:23:34.865Z,1016.4
2016-08-01T06:24:34.892Z,1016.41
2016-08-01T06:25:34.919Z,1016.38
2016-08-01T06:26:34.946Z,1016.38
2016-08-01T06:27:34.972Z,1016.39
2016-08-01T06:28:34.999Z,1016.4
2016-08-01T06:29:35.027Z,1016.42
2016-08-01T06:30:35.053Z,1016.38
2016-08-01T06:31:35.080Z,1016.33
2016-08-01T06:32:35.107Z,1016.33
2016-08-01T06:33:35.133Z,1016.31
2016-08-01T06:35:35.188Z,1016.25
2016-08-01T06:36:35.216Z,1016.28
2016-08-01T06:37:35.244Z,1016.3
2016-08-01T06:38:35.270Z,1016.27
2016-08-01T06:39:35.298Z,1016.27
2016-08-01T06:40:35.326Z,1016.26
2016-08-01T06:41:35.353Z,1016.3
2016-08-01T06:42:35.379Z,1016.31
2016-08-01T06:43:35.406Z,1016.33
2016-08-01T06:44:35.434Z,1016.35
2016-08-01T06:45:35.462Z,1016.38
2016-08-01T06:46:35.489Z,1016.38
2016-08-01T06:47:35.517Z,1016.37
2016-08-01T06:48:35.544Z,1016.33
2016-08-01T06:50:36.798Z,1016.34
2016-08-01T06:51:35.627Z,1016.35
2016-08-01T06:52:35.655Z,1016.3
2016-08-01T06:53:35.681Z,1016.27
2016-08-01T06:54:35.709Z,1016.32
2016-08-01T06:55:35.738Z,1016.29
2016-08-01T06:56:35.766Z,1016.29
2016-08-01T06:57:35.792Z,1016.3
2016-08-01T06:58:35.820Z,1016.33
2016-08-01T06:59:35.848Z,1016.27
2016-08-01T07:00:35.876Z,1016.28
2016-08-01T07:01:35.903Z,1016.3
2016-08-01T07:02:35.930Z,1016.24
2016-08-01T07:03:35.960Z,1016.25
2016-08-01T07:04:35.986Z,1016.26
2016-08-01T07:05:36.015Z,1016.25
2016-08-01T07:06:36.043Z,1016.25
2016-08-01T07:07:36.071Z,1016.25
2016-08-01T07:08:36.098Z,1016.27
2016-08-01T07:09:36.126Z,1016.29
2016-08-01T07:10:36.154Z,1016.24
2016-08-01T07:11:36.181Z,1016.27
2016-08-01T07:12:36.210Z,1016.26
2016-08-01T07:13:36.237Z,1016.26
2016-08-01T07:14:36.266Z,1016.26
2016-08-01T07:15:36.294Z,1016.27
2016-08-01T07:16:36.322Z,1016.26
2016-08-01T07:17:36.353Z,1016.23
2016-08-01T07:18:36.379Z,1016.22
2016-08-01T07:19:36.405Z,1016.24
2016-08-01T07:20:36.434Z,1016.23
2016-08-01T07:21:36.463Z,1016.25
2016-08-01T07:22:36.490Z,1016.2
2016-08-01T07:23:36.519Z,1016.26
2016-08-01T07:24:36.548Z,1016.23
2016-08-01T07:25:36.577Z,1016.22
2016-08-01T07:26:36.605Z,1016.29
2016-08-01T07:27:36.633Z,1016.28
2016-08-01T07:28:36.663Z,1016.3
2016-08-01T07:29:36.694Z,1016.25
2016-08-01T07:30:36.718Z,1016.28
2016-08-01T07:31:36.747Z,1016.3
2016-08-01T07:32:36.775Z,1016.29
2016-08-01T07:33:36.803Z,1016.25
2016-08-01T07:34:36.832Z,1016.27
2016-08-01T07:35:36.861Z,1016.25
2016-08-01T07:36:36.889Z,1016.24
2016-08-01T07:37:36.917Z,1016.26
2016-08-01T07:38:36.945Z,1016.25
2016-08-01T07:39:36.973Z,1016.26
2016-08-01T07:40:37.003Z,1016.23
2016-08-01T07:41:37.043Z,1016.25
2016-08-01T07:42:37.059Z,1016.26
2016-08-01T07:43:37.089Z,1016.28
2016-08-01T07:44:37.116Z,1016.3
2016-08-01T07:45:37.145Z,1016.23
2016-08-01T07:46:37.174Z,1016.26
2016-08-01T07:47:37.203Z,1016.26
2016-08-01T07:48:37.231Z,1016.32
2016-08-01T07:49:37.260Z,1016.31
2016-08-01T07:50:37.290Z,1016.32
2016-08-01T07:51:37.318Z,1016.33
2016-08-01T07:52:37.347Z,1016.32
2016-08-01T07:53:37.377Z,1016.36
2016-08-01T07:54:37.405Z,1016.34
2016-08-01T07:55:37.438Z,1016.34
2016-08-01T07:56:37.463Z,1016.32
2016-08-01T07:57:37.492Z,1016.33
2016-08-01T07:58:37.521Z,1016.33
2016-08-01T07:59:37.548Z,1016.32
2016-08-01T08:00:37.578Z,1016.31
2016-08-01T08:01:37.607Z,1016.29
2016-08-01T08:02:37.636Z,1016.32
2016-08-01T08:03:37.666Z,1016.24
2016-08-01T08:04:37.693Z,1016.22
2016-08-01T08:05:37.723Z,1016.16
2016-08-01T08:06:37.752Z,1016.21
2016-08-01T08:07:37.780Z,1016.19
2016-08-01T08:08:37.810Z,1016.2
2016-08-01T08:09:37.839Z,1016.23
2016-08-01T08:10:37.867Z,1016.19
2016-08-01T08:11:37.897Z,1016.19
2016-08-01T08:12:37.925Z,1016.22
2016-08-01T08:13:37.954Z,1016.23
2016-08-01T08:14:37.984Z,1016.23
2016-08-01T08:15:38.014Z,1016.23
2016-08-01T08:16:38.041Z,1016.24
2016-08-01T08:17:38.068Z,1016.23
2016-08-01T08:18:38.098Z,1016.21
2016-08-01T08:19:38.127Z,1016.16
2016-08-01T08:20:38.156Z,1016.19
2016-08-01T08:21:38.184Z,1016.19
2016-08-01T08:22:38.214Z,1016.17
2016-08-01T08:23:38.242Z,1016.19
2016-08-01T08:24:38.273Z,1016.16
2016-08-01T08:25:38.299Z,1016.17
2016-08-01T08:26:38.329Z,1016.15
2016-08-01T08:27:38.358Z,1016.16
2016-08-01T08:28:38.385Z,1016.19
2016-08-01T08:29:38.415Z,1016.15
2016-08-01T08:30:38.448Z,1016.16
2016-08-01T08:31:38.473Z,1016.14
2016-08-01T08:32:38.502Z,1016.12
2016-08-01T08:33:38.530Z,1016.14
2016-08-01T08:34:38.560Z,1016.13
2016-08-01T08:35:38.588Z,1016.08
2016-08-01T08:36:38.616Z,1016.14
2016-08-01T08:37:38.647Z,1016.1
2016-08-01T08:38:38.675Z,1016.08
2016-08-01T08:39:38.703Z,1016.1
2016-08-01T08:40:38.732Z,1016.08
2016-08-01T08:41:38.760Z,1016.09
2016-08-01T08:42:38.790Z,1016.05
2016-08-01T08:43:38.818Z,1016.11
2016-08-01T08:44:38.846Z,1016.1
2016-08-01T08:45:38.876Z,1016.12
2016-08-01T08:46:38.903Z,1016.11
2016-08-01T08:47:38.933Z,1016.09
2016-08-01T08:48:38.961Z,1016.05
2016-08-01T08:49:38.991Z,1016.03
2016-08-01T08:50:39.019Z,1016.03
2016-08-01T08:51:39.048Z,1016.04
2016-08-01T08:52:39.078Z,1016.05
2016-08-01T08:53:39.106Z,1016.06
2016-08-01T08:54:39.134Z,1016.09
2016-08-01T08:55:39.165Z,1016.08
2016-08-01T08:56:39.191Z,1016.08
2016-08-01T08:57:39.220Z,1016.07
2016-08-01T08:58:39.251Z,1016.07
2016-08-01T08:59:39.278Z,1016.05
2016-08-01T09:00:39.307Z,1016.06
2016-08-01T09:01:39.335Z,1016.04
2016-08-01T09:02:39.363Z,1016.06
2016-08-01T09:03:39.393Z,1016.08
2016-08-01T09:04:39.423Z,1016.11
2016-08-01T09:05:39.449Z,1016.06
2016-08-01T09:06:39.479Z,1016.04
2016-08-01T09:07:39.508Z,1016.06
2016-08-01T09:08:39.536Z,1016.07
2016-08-01T09:09:39.565Z,1016.1
2016-08-01T09:10:39.594Z,1016.08
2016-08-01T09:11:39.623Z,1016.13
2016-08-01T09:12:39.650Z,1016.16
2016-08-01T09:13:39.680Z,1016.13
2016-08-01T09:14:39.709Z,1016.18
2016-08-01T09:15:39.738Z,1016.17
2016-08-01T09:16:39.767Z,1016.2
2016-08-01T09:17:39.796Z,1016.18
2016-08-01T09:18:39.825Z,1016.18
2016-08-01T09:19:39.853Z,1016.2
2016-08-01T09:20:39.882Z,1016.2
2016-08-01T09:21:39.911Z,1016.15
2016-08-01T09:22:39.939Z,1016.17
2016-08-01T09:23:39.967Z,1016.2
2016-08-01T09:24:39.997Z,1016.17
2016-08-01T09:25:40.025Z,1016.19
2016-08-01T09:26:40.053Z,1016.2
2016-08-01T09:27:40.087Z,1016.17
2016-08-01T09:28:40.112Z,1016.17
2016-08-01T09:29:40.140Z,1016.18
2016-08-01T09:30:40.168Z,1016.17
2016-08-01T09:31:40.195Z,1016.17
2016-08-01T09:32:40.225Z,1016.16
2016-08-01T09:33:40.254Z,1016.11
2016-08-01T09:34:40.281Z,1016.19
2016-08-01T09:35:40.311Z,1016.18
2016-08-01T09:36:40.339Z,1016.15
2016-08-01T09:37:40.367Z,1016.19
2016-08-01T09:38:40.396Z,1016.16
2016-08-01T09:39:40.425Z,1016.2
2016-08-01T09:40:40.454Z,1016.21
2016-08-01T09:41:40.481Z,1016.18
2016-08-01T09:42:40.511Z,1016.2
2016-08-01T09:43:40.540Z,1016.2
2016-08-01T09:44:40.568Z,1016.22
2016-08-01T09:45:40.596Z,1016.26
2016-08-01T09:46:40.624Z,1016.25
2016-08-01T09:47:40.653Z,1016.21
2016-08-01T09:48:40.680Z,1016.19
2016-08-01T09:49:40.709Z,1016.25
2016-08-01T09:50:40.739Z,1016.19
2016-08-01T09:51:40.767Z,1016.23
2016-08-01T09:52:40.827Z,1016.25
2016-08-01T09:53:40.823Z,1016.24
2016-08-01T09:54:40.852Z,1016.25
2016-08-01T09:55:40.881Z,1016.25
2016-08-01T09:56:40.909Z,1016.25
2016-08-01T09:57:40.938Z,1016.29
2016-08-01T09:58:40.967Z,1016.29
2016-08-01T09:59:40.995Z,1016.24
2016-08-01T10:00:41.022Z,1016.24
2016-08-01T10:01:41.052Z,1016.2
2016-08-01T10:02:41.080Z,1016.27
2016-08-01T10:03:41.108Z,1016.26
2016-08-01T10:04:41.136Z,1016.29
2016-08-01T10:05:41.165Z,1016.23
2016-08-01T10:06:41.193Z,1016.24
2016-08-01T10:07:41.221Z,1016.24
2016-08-01T10:08:41.250Z,1016.22
2016-08-01T10:09:41.279Z,1016.22
2016-08-01T10:10:41.306Z,1016.21
2016-08-01T10:11:41.335Z,1016.2
2016-08-01T10:12:41.363Z,1016.18
2016-08-01T10:13:41.393Z,1016.18
2016-08-01T10:14:41.420Z,1016.21
2016-08-01T10:15:41.449Z,1016.21
2016-08-01T10:16:41.477Z,1016.21
2016-08-01T10:17:41.506Z,1016.22
2016-08-01T10:18:41.533Z,1016.22
2016-08-01T10:19:41.562Z,1016.23
2016-08-01T10:20:41.590Z,1016.21
2016-08-01T10:21:41.618Z,1016.19
2016-08-01T10:22:41.647Z,1016.24
2016-08-01T10:23:41.675Z,1016.22
2016-08-01T10:24:41.704Z,1016.24
2016-08-01T10:25:41.735Z,1016.23
2016-08-01T10:26:41.760Z,1016.2
2016-08-01T10:27:41.789Z,1016.22
2016-08-01T10:28:41.818Z,1016.22
2016-08-01T10:29:41.844Z,1016.18
2016-08-01T10:30:41.873Z,1016.16
2016-08-01T10:31:41.902Z,1016.18
2016-08-01T10:32:41.929Z,1016.17
2016-08-01T10:33:41.957Z,1016.21
2016-08-01T10:34:41.986Z,1016.19
2016-08-01T10:35:42.015Z,1016.2
2016-08-01T10:36:42.043Z,1016.22
2016-08-01T10:37:42.071Z,1016.17
2016-08-01T10:38:42.100Z,1016.24
2016-08-01T10:39:42.129Z,1016.23
2016-08-01T10:40:42.157Z,1016.27
2016-08-01T10:41:42.185Z,1016.27
2016-08-01T10:42:42.213Z,1016.29
2016-08-01T10:43:42.240Z,1016.29
2016-08-01T10:44:42.269Z,1016.28
2016-08-01T10:45:42.298Z,1016.25
2016-08-01T10:46:42.325Z,1016.27
2016-08-01T10:47:42.353Z,1016.28
2016-08-01T10:48:42.383Z,1016.3
2016-08-01T10:49:42.411Z,1016.27
2016-08-01T10:50:42.439Z,1016.29
2016-08-01T10:51:42.468Z,1016.28
2016-08-01T10:52:42.497Z,1016.31
2016-08-01T10:53:42.524Z,1016.33
2016-08-01T10:54:42.553Z,1016.33
2016-08-01T10:55:42.581Z,1016.32
2016-08-01T10:56:42.609Z,1016.34
2016-08-01T10:57:42.638Z,1016.31
2016-08-01T10:58:42.666Z,1016.34
2016-08-01T10:59:42.694Z,1016.32
2016-08-01T11:00:42.723Z,1016.29
2016-08-01T11:01:42.751Z,1016.29
2016-08-01T11:02:42.779Z,1016.29
2016-08-01T11:03:42.808Z,1016.28
2016-08-01T11:04:42.836Z,1016.31
2016-08-01T11:05:42.864Z,1016.28
2016-08-01T11:06:42.892Z,1016.28
2016-08-01T11:07:42.920Z,1016.28
2016-08-01T11:08:42.949Z,1016.28
2016-08-01T11:09:42.976Z,1016.27
2016-08-01T11:10:43.005Z,1016.23
2016-08-01T11:11:43.034Z,1016.2
2016-08-01T11:12:43.065Z,1016.22
2016-08-01T11:13:43.091Z,1016.24
2016-08-01T11:14:43.117Z,1016.16
2016-08-01T11:15:43.146Z,1016.17
2016-08-01T11:16:43.178Z,1016.12
2016-08-01T11:17:43.202Z,1016.12
2016-08-01T11:18:43.230Z,1016.14
2016-08-01T11:19:43.260Z,1016.13
2016-08-01T11:21:43.315Z,1016.15
2016-08-01T11:22:43.344Z,1016.22
2016-08-01T11:23:43.370Z,1016.16
2016-08-01T11:24:43.399Z,1016.21
2016-08-01T11:25:43.428Z,1016.17
2016-08-01T11:26:43.456Z,1016.21
2016-08-01T11:27:43.484Z,1016.19
2016-08-01T11:28:43.512Z,1016.17
2016-08-01T11:29:43.540Z,1016.18
2016-08-01T11:30:43.570Z,1016.19
2016-08-01T11:31:43.597Z,1016.18
2016-08-01T11:32:43.624Z,1016.21
2016-08-01T11:33:43.654Z,1016.24
2016-08-01T11:34:43.681Z,1016.16
2016-08-01T11:36:43.738Z,1016.17
2016-08-01T11:37:43.766Z,1016.16
2016-08-01T11:38:43.794Z,1016.15
2016-08-01T11:39:43.822Z,1016.13
2016-08-01T11:40:43.850Z,1016.15
2016-08-01T11:41:43.879Z,1016.12
2016-08-01T11:42:43.907Z,1016.09
2016-08-01T11:43:43.935Z,1016.09
2016-08-01T11:44:43.964Z,1016.07
2016-08-01T11:45:43.991Z,1016.05
2016-08-01T11:46:44.020Z,1016
2016-08-01T11:47:44.253Z,1016
2016-08-01T11:48:44.078Z,1016.01
2016-08-01T11:49:44.105Z,1016
2016-08-01T11:50:44.133Z,1016
2016-08-01T11:51:44.161Z,1016.03
2016-08-01T11:52:44.190Z,1016.02
2016-08-01T11:53:44.217Z,1016.03
2016-08-01T11:54:44.247Z,1016
2016-08-01T11:55:44.275Z,1015.97
2016-08-01T11:56:44.302Z,1016.06
2016-08-01T11:57:44.331Z,1016.05
2016-08-01T11:58:44.359Z,1016.07
2016-08-01T11:59:44.387Z,1016.05
2016-08-01T12:00:44.415Z,1016.04
2016-08-01T12:01:44.444Z,1016.01
2016-08-01T12:02:44.471Z,1016.02
2016-08-01T12:03:44.500Z,1016.02
2016-08-01T12:04:44.528Z,1016.01
2016-08-01T12:05:44.558Z,1016.07
2016-08-01T12:06:44.584Z,1016.05
2016-08-01T12:07:44.611Z,1016.07
2016-08-01T12:08:44.640Z,1016.03
2016-08-01T12:09:44.669Z,1016.07
2016-08-01T12:10:44.704Z,1016.02
2016-08-01T12:11:44.725Z,1016.01
2016-08-01T12:12:44.753Z,1016
2016-08-01T12:13:44.781Z,1015.98
2016-08-01T12:14:44.809Z,1015.96
2016-08-01T12:15:44.838Z,1015.94
2016-08-01T12:16:44.866Z,1015.95
2016-08-01T12:17:44.894Z,1015.92